sensor_id;sensor_type;location;lat;lon;timestamp;temperature;humidity
53978;DHT22;39886;47.984;-1.586;2023-04-03T00:00:13;17.40;62.50
53978;DHT22;39886;47.984;-1.586;2023-04-03T00:02:39;17.40;62.50
53978;DHT22;39886;47.984;-1.586;2023-04-03T00:05:06;17.40;62.60
53978;DHT22;39886;47.984;-1.586;2023-04-03T00:07:32;17.40;62.60
53978;DHT22;39886;47.984;-1.586;2023-04-03T00:09:58;17.40;62.60
53978;DHT22;39886;47.984;-1.586;2023-04-03T00:12:24;17.40;62.60
53978;DHT22;39886;47.984;-1.586;2023-04-03T00:14:50;17.40;62.60
53978;DHT22;39886;47.984;-1.586;2023-04-03T00:17:15;17.30;62.50
53978;DHT22;39886;47.984;-1.586;2023-04-03T00:19:41;17.30;63.20
53978;DHT22;39886;47.984;-1.586;2023-04-03T00:22:07;17.30;62.50
53978;DHT22;39886;47.984;-1.586;2023-04-03T00:24:32;17.30;62.50
53978;DHT22;39886;47.984;-1.586;2023-04-03T00:26:58;17.30;62.50
53978;DHT22;39886;47.984;-1.586;2023-04-03T00:29:24;17.30;62.50
53978;DHT22;39886;47.984;-1.586;2023-04-03T00:31:49;17.30;62.60
53978;DHT22;39886;47.984;-1.586;2023-04-03T00:34:15;17.30;62.50
53978;DHT22;39886;47.984;-1.586;2023-04-03T00:36:41;17.30;62.50
53978;DHT22;39886;47.984;-1.586;2023-04-03T00:39:07;17.30;62.50
53978;DHT22;39886;47.984;-1.586;2023-04-03T00:41:32;17.20;62.50
53978;DHT22;39886;47.984;-1.586;2023-04-03T00:43:58;17.20;62.50
53978;DHT22;39886;47.984;-1.586;2023-04-03T00:46:24;17.20;62.50
53978;DHT22;39886;47.984;-1.586;2023-04-03T00:48:50;17.20;62.50
53978;DHT22;39886;47.984;-1.586;2023-04-03T00:51:23;17.20;62.60
53978;DHT22;39886;47.984;-1.586;2023-04-03T00:53:57;17.20;62.60
53978;DHT22;39886;47.984;-1.586;2023-04-03T00:56:25;17.20;62.60
53978;DHT22;39886;47.984;-1.586;2023-04-03T00:58:57;17.20;62.50
53978;DHT22;39886;47.984;-1.586;2023-04-03T01:01:27;17.20;62.60
53978;DHT22;39886;47.984;-1.586;2023-04-03T01:03:53;17.20;62.60
53978;DHT22;39886;47.984;-1.586;2023-04-03T01:06:30;17.20;62.60
53978;DHT22;39886;47.984;-1.586;2023-04-03T01:08:58;17.20;62.60
53978;DHT22;39886;47.984;-1.586;2023-04-03T01:11:24;17.20;62.60
53978;DHT22;39886;47.984;-1.586;2023-04-03T01:13:50;17.10;62.60
53978;DHT22;39886;47.984;-1.586;2023-04-03T01:16:16;17.10;62.50
53978;DHT22;39886;47.984;-1.586;2023-04-03T01:18:42;17.20;62.60
53978;DHT22;39886;47.984;-1.586;2023-04-03T01:24:18;17.10;62.60
53978;DHT22;39886;47.984;-1.586;2023-04-03T01:26:46;17.10;62.60
53978;DHT22;39886;47.984;-1.586;2023-04-03T01:29:12;17.10;62.60
53978;DHT22;39886;47.984;-1.586;2023-04-03T01:34:17;17.10;62.50
53978;DHT22;39886;47.984;-1.586;2023-04-03T01:36:43;17.10;62.60
53978;DHT22;39886;47.984;-1.586;2023-04-03T01:39:10;17.10;62.60
53978;DHT22;39886;47.984;-1.586;2023-04-03T01:41:35;17.10;62.60
53978;DHT22;39886;47.984;-1.586;2023-04-03T01:44:01;17.10;62.60
53978;DHT22;39886;47.984;-1.586;2023-04-03T01:46:27;17.10;62.60
53978;DHT22;39886;47.984;-1.586;2023-04-03T01:48:53;17.10;62.60
53978;DHT22;39886;47.984;-1.586;2023-04-03T01:51:18;17.00;62.50
53978;DHT22;39886;47.984;-1.586;2023-04-03T01:53:44;17.00;62.60
53978;DHT22;39886;47.984;-1.586;2023-04-03T01:56:10;17.00;62.50
53978;DHT22;39886;47.984;-1.586;2023-04-03T01:58:36;17.00;62.60
53978;DHT22;39886;47.984;-1.586;2023-04-03T02:01:02;17.00;62.60
53978;DHT22;39886;47.984;-1.586;2023-04-03T02:03:28;17.00;62.60
53978;DHT22;39886;47.984;-1.586;2023-04-03T02:05:53;17.00;62.60
53978;DHT22;39886;47.984;-1.586;2023-04-03T02:08:19;17.00;62.50
53978;DHT22;39886;47.984;-1.586;2023-04-03T02:10:49;17.00;62.60
53978;DHT22;39886;47.984;-1.586;2023-04-03T02:13:16;16.90;62.50
53978;DHT22;39886;47.984;-1.586;2023-04-03T02:15:42;17.00;62.60
53978;DHT22;39886;47.984;-1.586;2023-04-03T02:18:08;16.90;62.50
53978;DHT22;39886;47.984;-1.586;2023-04-03T02:20:33;17.00;62.60
53978;DHT22;39886;47.984;-1.586;2023-04-03T02:22:59;16.90;62.50
53978;DHT22;39886;47.984;-1.586;2023-04-03T02:25:25;16.90;62.50
53978;DHT22;39886;47.984;-1.586;2023-04-03T02:27:51;16.90;62.50
53978;DHT22;39886;47.984;-1.586;2023-04-03T02:30:17;16.90;62.50
53978;DHT22;39886;47.984;-1.586;2023-04-03T02:32:43;16.90;62.50
53978;DHT22;39886;47.984;-1.586;2023-04-03T02:35:10;16.90;62.50
53978;DHT22;39886;47.984;-1.586;2023-04-03T02:37:36;16.90;62.50
53978;DHT22;39886;47.984;-1.586;2023-04-03T02:40:02;16.90;62.50
53978;DHT22;39886;47.984;-1.586;2023-04-03T02:42:29;16.90;62.60
53978;DHT22;39886;47.984;-1.586;2023-04-03T02:44:55;16.90;62.50
53978;DHT22;39886;47.984;-1.586;2023-04-03T02:47:20;16.90;62.50
53978;DHT22;39886;47.984;-1.586;2023-04-03T02:49:46;16.90;62.50
53978;DHT22;39886;47.984;-1.586;2023-04-03T02:52:13;16.90;62.50
53978;DHT22;39886;47.984;-1.586;2023-04-03T02:54:39;16.80;62.50
53978;DHT22;39886;47.984;-1.586;2023-04-03T02:57:05;16.80;62.50
53978;DHT22;39886;47.984;-1.586;2023-04-03T02:59:31;16.80;62.50
53978;DHT22;39886;47.984;-1.586;2023-04-03T03:01:56;16.80;62.50
53978;DHT22;39886;47.984;-1.586;2023-04-03T03:04:22;16.90;62.60
53978;DHT22;39886;47.984;-1.586;2023-04-03T03:06:48;16.90;62.60
53978;DHT22;39886;47.984;-1.586;2023-04-03T03:09:14;16.90;62.60
53978;DHT22;39886;47.984;-1.586;2023-04-03T03:11:40;16.80;62.50
53978;DHT22;39886;47.984;-1.586;2023-04-03T03:14:05;16.80;62.50
53978;DHT22;39886;47.984;-1.586;2023-04-03T03:16:31;16.80;62.50
53978;DHT22;39886;47.984;-1.586;2023-04-03T03:18:57;16.80;62.50
53978;DHT22;39886;47.984;-1.586;2023-04-03T03:21:23;16.80;62.50
53978;DHT22;39886;47.984;-1.586;2023-04-03T03:23:48;16.80;62.50
53978;DHT22;39886;47.984;-1.586;2023-04-03T03:26:14;16.80;62.50
53978;DHT22;39886;47.984;-1.586;2023-04-03T03:28:40;16.80;62.50
53978;DHT22;39886;47.984;-1.586;2023-04-03T03:31:08;16.80;62.50
53978;DHT22;39886;47.984;-1.586;2023-04-03T03:33:34;16.80;62.50
53978;DHT22;39886;47.984;-1.586;2023-04-03T03:36:00;16.80;62.50
53978;DHT22;39886;47.984;-1.586;2023-04-03T03:38:26;16.80;62.60
53978;DHT22;39886;47.984;-1.586;2023-04-03T03:40:52;16.70;62.50
53978;DHT22;39886;47.984;-1.586;2023-04-03T03:43:18;16.70;62.50
53978;DHT22;39886;47.984;-1.586;2023-04-03T03:45:44;16.70;62.50
53978;DHT22;39886;47.984;-1.586;2023-04-03T03:48:11;16.70;62.50
53978;DHT22;39886;47.984;-1.586;2023-04-03T03:50:36;16.70;62.50
53978;DHT22;39886;47.984;-1.586;2023-04-03T03:53:02;16.70;62.50
53978;DHT22;39886;47.984;-1.586;2023-04-03T03:55:28;16.70;62.50
53978;DHT22;39886;47.984;-1.586;2023-04-03T03:57:54;16.70;62.50
53978;DHT22;39886;47.984;-1.586;2023-04-03T04:00:20;16.70;62.50
53978;DHT22;39886;47.984;-1.586;2023-04-03T04:02:45;16.70;62.50
53978;DHT22;39886;47.984;-1.586;2023-04-03T04:05:12;16.70;62.50
53978;DHT22;39886;47.984;-1.586;2023-04-03T04:07:37;16.70;62.50
53978;DHT22;39886;47.984;-1.586;2023-04-03T04:10:04;16.70;62.50
53978;DHT22;39886;47.984;-1.586;2023-04-03T04:12:30;16.70;62.60
53978;DHT22;39886;47.984;-1.586;2023-04-03T04:14:55;16.60;62.50
53978;DHT22;39886;47.984;-1.586;2023-04-03T04:17:21;16.70;62.50
53978;DHT22;39886;47.984;-1.586;2023-04-03T04:19:47;16.60;62.50
53978;DHT22;39886;47.984;-1.586;2023-04-03T04:22:13;16.60;62.50
53978;DHT22;39886;47.984;-1.586;2023-04-03T04:24:38;16.60;62.50
53978;DHT22;39886;47.984;-1.586;2023-04-03T04:27:04;16.60;62.50
53978;DHT22;39886;47.984;-1.586;2023-04-03T04:29:33;16.60;62.50
53978;DHT22;39886;47.984;-1.586;2023-04-03T04:32:04;16.60;62.50
53978;DHT22;39886;47.984;-1.586;2023-04-03T04:34:32;16.60;62.50
53978;DHT22;39886;47.984;-1.586;2023-04-03T04:36:58;16.60;62.50
53978;DHT22;39886;47.984;-1.586;2023-04-03T04:39:23;16.60;62.50
53978;DHT22;39886;47.984;-1.586;2023-04-03T04:41:49;16.60;62.60
53978;DHT22;39886;47.984;-1.586;2023-04-03T04:44:15;16.60;62.60
53978;DHT22;39886;47.984;-1.586;2023-04-03T04:46:41;16.50;62.50
53978;DHT22;39886;47.984;-1.586;2023-04-03T04:49:07;16.60;62.60
53978;DHT22;39886;47.984;-1.586;2023-04-03T04:51:32;16.60;62.50
53978;DHT22;39886;47.984;-1.586;2023-04-03T04:53:58;16.60;62.50
53978;DHT22;39886;47.984;-1.586;2023-04-03T04:56:24;16.50;62.50
53978;DHT22;39886;47.984;-1.586;2023-04-03T04:58:50;16.50;62.50
53978;DHT22;39886;47.984;-1.586;2023-04-03T05:01:16;16.50;62.50
53978;DHT22;39886;47.984;-1.586;2023-04-03T05:03:42;16.50;62.50
53978;DHT22;39886;47.984;-1.586;2023-04-03T05:06:08;16.50;62.50
53978;DHT22;39886;47.984;-1.586;2023-04-03T05:08:34;16.50;62.50
53978;DHT22;39886;47.984;-1.586;2023-04-03T05:10:59;16.50;62.50
53978;DHT22;39886;47.984;-1.586;2023-04-03T05:13:25;16.50;62.50
53978;DHT22;39886;47.984;-1.586;2023-04-03T05:15:51;16.50;62.50
53978;DHT22;39886;47.984;-1.586;2023-04-03T05:18:16;16.50;62.50
53978;DHT22;39886;47.984;-1.586;2023-04-03T05:20:42;16.50;62.50
53978;DHT22;39886;47.984;-1.586;2023-04-03T05:23:09;16.50;62.50
53978;DHT22;39886;47.984;-1.586;2023-04-03T05:25:37;16.50;62.50
53978;DHT22;39886;47.984;-1.586;2023-04-03T05:28:05;16.50;62.50
53978;DHT22;39886;47.984;-1.586;2023-04-03T05:30:30;16.50;62.50
53978;DHT22;39886;47.984;-1.586;2023-04-03T05:32:56;16.50;62.50
53978;DHT22;39886;47.984;-1.586;2023-04-03T05:35:23;16.50;62.50
53978;DHT22;39886;47.984;-1.586;2023-04-03T05:37:49;16.50;62.50
53978;DHT22;39886;47.984;-1.586;2023-04-03T05:40:14;16.50;62.50
53978;DHT22;39886;47.984;-1.586;2023-04-03T05:42:40;16.50;62.50
53978;DHT22;39886;47.984;-1.586;2023-04-03T05:45:07;16.50;62.40
53978;DHT22;39886;47.984;-1.586;2023-04-03T05:47:32;16.50;62.50
53978;DHT22;39886;47.984;-1.586;2023-04-03T05:49:58;16.40;62.40
53978;DHT22;39886;47.984;-1.586;2023-04-03T05:52:30;16.40;62.40
53978;DHT22;39886;47.984;-1.586;2023-04-03T05:54:56;16.40;62.40
53978;DHT22;39886;47.984;-1.586;2023-04-03T05:57:22;16.40;62.40
53978;DHT22;39886;47.984;-1.586;2023-04-03T05:59:48;16.40;62.40
53978;DHT22;39886;47.984;-1.586;2023-04-03T06:02:19;16.40;62.40
53978;DHT22;39886;47.984;-1.586;2023-04-03T06:04:45;16.40;62.30
53978;DHT22;39886;47.984;-1.586;2023-04-03T06:07:17;16.40;62.30
53978;DHT22;39886;47.984;-1.586;2023-04-03T06:09:43;16.40;62.40
53978;DHT22;39886;47.984;-1.586;2023-04-03T06:12:09;16.40;62.30
53978;DHT22;39886;47.984;-1.586;2023-04-03T06:14:36;16.40;62.30
53978;DHT22;39886;47.984;-1.586;2023-04-03T06:17:01;16.40;62.30
53978;DHT22;39886;47.984;-1.586;2023-04-03T06:19:28;16.40;62.30
53978;DHT22;39886;47.984;-1.586;2023-04-03T06:21:54;16.40;62.30
53978;DHT22;39886;47.984;-1.586;2023-04-03T06:24:20;16.40;62.30
53978;DHT22;39886;47.984;-1.586;2023-04-03T06:26:48;16.40;62.30
53978;DHT22;39886;47.984;-1.586;2023-04-03T06:29:15;16.40;62.30
53978;DHT22;39886;47.984;-1.586;2023-04-03T06:31:41;16.40;62.30
53978;DHT22;39886;47.984;-1.586;2023-04-03T06:34:07;16.40;62.30
53978;DHT22;39886;47.984;-1.586;2023-04-03T06:36:32;16.40;62.20
53978;DHT22;39886;47.984;-1.586;2023-04-03T06:38:58;16.50;62.30
53978;DHT22;39886;47.984;-1.586;2023-04-03T06:41:25;16.50;62.30
53978;DHT22;39886;47.984;-1.586;2023-04-03T06:43:51;16.40;62.20
53978;DHT22;39886;47.984;-1.586;2023-04-03T06:46:19;16.50;62.30
53978;DHT22;39886;47.984;-1.586;2023-04-03T06:48:45;16.60;62.20
53978;DHT22;39886;47.984;-1.586;2023-04-03T06:51:18;16.70;61.90
53978;DHT22;39886;47.984;-1.586;2023-04-03T06:53:45;16.80;61.60
53978;DHT22;39886;47.984;-1.586;2023-04-03T06:56:11;16.80;61.60
53978;DHT22;39886;47.984;-1.586;2023-04-03T06:58:37;16.90;61.40
53978;DHT22;39886;47.984;-1.586;2023-04-03T07:01:03;17.10;61.30
53978;DHT22;39886;47.984;-1.586;2023-04-03T07:03:28;17.20;61.30
53978;DHT22;39886;47.984;-1.586;2023-04-03T07:05:54;17.30;61.30
53978;DHT22;39886;47.984;-1.586;2023-04-03T07:08:20;17.30;61.20
53978;DHT22;39886;47.984;-1.586;2023-04-03T07:10:48;17.40;61.30
53978;DHT22;39886;47.984;-1.586;2023-04-03T07:13:14;17.50;61.30
53978;DHT22;39886;47.984;-1.586;2023-04-03T07:15:40;17.60;61.70
53978;DHT22;39886;47.984;-1.586;2023-04-03T07:18:05;17.70;61.30
53978;DHT22;39886;47.984;-1.586;2023-04-03T07:20:31;17.70;61.30
53978;DHT22;39886;47.984;-1.586;2023-04-03T07:22:57;17.80;61.20
53978;DHT22;39886;47.984;-1.586;2023-04-03T07:25:23;17.90;61.50
53978;DHT22;39886;47.984;-1.586;2023-04-03T07:27:49;18.00;61.40
53978;DHT22;39886;47.984;-1.586;2023-04-03T07:30:15;18.10;61.60
53978;DHT22;39886;47.984;-1.586;2023-04-03T07:32:41;18.10;61.30
53978;DHT22;39886;47.984;-1.586;2023-04-03T07:35:06;18.20;61.60
53978;DHT22;39886;47.984;-1.586;2023-04-03T07:37:32;18.30;61.50
53978;DHT22;39886;47.984;-1.586;2023-04-03T07:39:58;18.30;60.90
53978;DHT22;39886;47.984;-1.586;2023-04-03T07:42:25;18.40;60.70
53978;DHT22;39886;47.984;-1.586;2023-04-03T07:44:53;18.40;60.90
53978;DHT22;39886;47.984;-1.586;2023-04-03T07:47:19;18.50;61.50
53978;DHT22;39886;47.984;-1.586;2023-04-03T07:49:46;18.60;60.60
53978;DHT22;39886;47.984;-1.586;2023-04-03T07:52:12;18.70;61.00
53978;DHT22;39886;47.984;-1.586;2023-04-03T07:54:41;18.70;61.00
53978;DHT22;39886;47.984;-1.586;2023-04-03T07:57:07;18.80;61.10
53978;DHT22;39886;47.984;-1.586;2023-04-03T07:59:32;18.80;61.10
53978;DHT22;39886;47.984;-1.586;2023-04-03T08:01:58;18.80;61.70
53978;DHT22;39886;47.984;-1.586;2023-04-03T08:04:24;18.90;60.80
53978;DHT22;39886;47.984;-1.586;2023-04-03T08:06:51;19.00;60.80
53978;DHT22;39886;47.984;-1.586;2023-04-03T08:09:18;19.00;60.30
53978;DHT22;39886;47.984;-1.586;2023-04-03T08:11:45;19.10;60.60
53978;DHT22;39886;47.984;-1.586;2023-04-03T08:14:11;19.10;60.60
53978;DHT22;39886;47.984;-1.586;2023-04-03T08:16:42;19.20;60.70
53978;DHT22;39886;47.984;-1.586;2023-04-03T08:19:08;19.20;60.60
53978;DHT22;39886;47.984;-1.586;2023-04-03T08:21:34;19.30;60.20
53978;DHT22;39886;47.984;-1.586;2023-04-03T08:24:00;19.30;60.50
53978;DHT22;39886;47.984;-1.586;2023-04-03T08:26:25;19.30;60.00
53978;DHT22;39886;47.984;-1.586;2023-04-03T08:28:52;19.40;60.40
53978;DHT22;39886;47.984;-1.586;2023-04-03T08:31:19;19.40;60.40
53978;DHT22;39886;47.984;-1.586;2023-04-03T08:33:45;19.50;60.40
53978;DHT22;39886;47.984;-1.586;2023-04-03T08:36:20;19.50;60.10
53978;DHT22;39886;47.984;-1.586;2023-04-03T08:38:46;19.60;60.00
53978;DHT22;39886;47.984;-1.586;2023-04-03T08:41:34;19.60;59.70
53978;DHT22;39886;47.984;-1.586;2023-04-03T08:44:25;19.70;59.80
53978;DHT22;39886;47.984;-1.586;2023-04-03T08:49:42;19.70;60.40
53978;DHT22;39886;47.984;-1.586;2023-04-03T08:54:56;19.80;59.90
53978;DHT22;39886;47.984;-1.586;2023-04-03T08:57:40;19.90;59.40
53978;DHT22;39886;47.984;-1.586;2023-04-03T09:00:41;19.90;59.40
53978;DHT22;39886;47.984;-1.586;2023-04-03T09:03:13;20.00;59.80
53978;DHT22;39886;47.984;-1.586;2023-04-03T09:11:27;20.10;59.30
53978;DHT22;39886;47.984;-1.586;2023-04-03T09:16:47;20.10;59.40
53978;DHT22;39886;47.984;-1.586;2023-04-03T09:22:26;20.20;59.20
53978;DHT22;39886;47.984;-1.586;2023-04-03T09:24:59;20.30;59.50
53978;DHT22;39886;47.984;-1.586;2023-04-03T09:27:26;20.30;58.90
53978;DHT22;39886;47.984;-1.586;2023-04-03T09:29:54;20.30;59.30
53978;DHT22;39886;47.984;-1.586;2023-04-03T09:32:28;20.30;59.20
53978;DHT22;39886;47.984;-1.586;2023-04-03T09:34:59;20.40;59.00
53978;DHT22;39886;47.984;-1.586;2023-04-03T09:37:42;20.40;58.90
53978;DHT22;39886;47.984;-1.586;2023-04-03T09:40:29;20.50;59.00
53978;DHT22;39886;47.984;-1.586;2023-04-03T09:42:58;20.50;59.00
53978;DHT22;39886;47.984;-1.586;2023-04-03T09:50:54;20.60;59.10
53978;DHT22;39886;47.984;-1.586;2023-04-03T09:53:35;20.60;58.50
53978;DHT22;39886;47.984;-1.586;2023-04-03T09:58:40;20.70;59.00
53978;DHT22;39886;47.984;-1.586;2023-04-03T10:04:12;20.80;59.00
53978;DHT22;39886;47.984;-1.586;2023-04-03T10:06:47;20.80;58.80
53978;DHT22;39886;47.984;-1.586;2023-04-03T10:09:21;20.80;58.50
53978;DHT22;39886;47.984;-1.586;2023-04-03T10:12:07;20.80;58.50
53978;DHT22;39886;47.984;-1.586;2023-04-03T10:14:36;20.90;58.50
53978;DHT22;39886;47.984;-1.586;2023-04-03T10:17:05;21.00;58.00
53978;DHT22;39886;47.984;-1.586;2023-04-03T10:22:29;21.10;58.10
53978;DHT22;39886;47.984;-1.586;2023-04-03T10:47:22;21.40;57.50
53978;DHT22;39886;47.984;-1.586;2023-04-03T10:52:51;21.40;57.40
53978;DHT22;39886;47.984;-1.586;2023-04-03T10:55:31;21.30;57.20
53978;DHT22;39886;47.984;-1.586;2023-04-03T10:57:59;21.40;57.10
53978;DHT22;39886;47.984;-1.586;2023-04-03T11:00:39;21.40;56.80
53978;DHT22;39886;47.984;-1.586;2023-04-03T11:03:24;21.40;56.90
53978;DHT22;39886;47.984;-1.586;2023-04-03T11:05:53;21.40;56.90
53978;DHT22;39886;47.984;-1.586;2023-04-03T11:08:28;21.50;56.80
53978;DHT22;39886;47.984;-1.586;2023-04-03T11:11:05;21.50;56.70
53978;DHT22;39886;47.984;-1.586;2023-04-03T11:13:33;21.60;56.30
53978;DHT22;39886;47.984;-1.586;2023-04-03T11:16:00;21.60;56.50
53978;DHT22;39886;47.984;-1.586;2023-04-03T11:18:43;21.60;56.40
53978;DHT22;39886;47.984;-1.586;2023-04-03T11:24:03;21.70;56.20
53978;DHT22;39886;47.984;-1.586;2023-04-03T11:26:36;21.70;56.00
53978;DHT22;39886;47.984;-1.586;2023-04-03T11:29:12;21.70;55.80
53978;DHT22;39886;47.984;-1.586;2023-04-03T11:34:52;21.70;56.00
53978;DHT22;39886;47.984;-1.586;2023-04-03T11:42:39;21.80;55.60
53978;DHT22;39886;47.984;-1.586;2023-04-03T11:47:56;21.70;56.10
53978;DHT22;39886;47.984;-1.586;2023-04-03T11:58:30;21.50;56.70
53978;DHT22;39886;47.984;-1.586;2023-04-03T12:00:58;21.50;56.60
53978;DHT22;39886;47.984;-1.586;2023-04-03T12:08:50;21.40;56.70
53978;DHT22;39886;47.984;-1.586;2023-04-03T12:11:30;21.40;56.50
53978;DHT22;39886;47.984;-1.586;2023-04-03T12:23:59;21.30;56.50
53978;DHT22;39886;47.984;-1.586;2023-04-03T12:29:33;21.30;56.40
53978;DHT22;39886;47.984;-1.586;2023-04-03T12:46:03;21.30;56.70
53978;DHT22;39886;47.984;-1.586;2023-04-03T12:48:32;21.30;56.60
53978;DHT22;39886;47.984;-1.586;2023-04-03T12:50:59;21.30;56.70
53978;DHT22;39886;47.984;-1.586;2023-04-03T12:53:32;21.30;56.70
53978;DHT22;39886;47.984;-1.586;2023-04-03T12:56:23;21.30;56.70
53978;DHT22;39886;47.984;-1.586;2023-04-03T12:58:50;21.30;56.60
53978;DHT22;39886;47.984;-1.586;2023-04-03T13:01:20;21.30;56.70
53978;DHT22;39886;47.984;-1.586;2023-04-03T13:06:59;21.30;56.60
53978;DHT22;39886;47.984;-1.586;2023-04-03T13:12:02;21.30;56.90
53978;DHT22;39886;47.984;-1.586;2023-04-03T13:14:30;21.40;56.80
53978;DHT22;39886;47.984;-1.586;2023-04-03T13:16:59;21.40;56.80
53978;DHT22;39886;47.984;-1.586;2023-04-03T13:19:26;21.40;56.70
53978;DHT22;39886;47.984;-1.586;2023-04-03T13:22:07;21.40;56.60
53978;DHT22;39886;47.984;-1.586;2023-04-03T13:24:36;21.40;56.60
53978;DHT22;39886;47.984;-1.586;2023-04-03T13:27:04;21.50;56.90
53978;DHT22;39886;47.984;-1.586;2023-04-03T13:29:35;21.40;56.80
53978;DHT22;39886;47.984;-1.586;2023-04-03T13:32:02;21.40;56.60
53978;DHT22;39886;47.984;-1.586;2023-04-03T13:34:45;21.50;56.50
53978;DHT22;39886;47.984;-1.586;2023-04-03T13:37:31;21.50;56.70
53978;DHT22;39886;47.984;-1.586;2023-04-03T13:40:10;21.50;56.50
53978;DHT22;39886;47.984;-1.586;2023-04-03T13:42:38;21.50;56.50
53978;DHT22;39886;47.984;-1.586;2023-04-03T13:45:22;21.50;56.50
53978;DHT22;39886;47.984;-1.586;2023-04-03T13:47:51;21.50;56.50
53978;DHT22;39886;47.984;-1.586;2023-04-03T13:50:26;21.50;56.60
53978;DHT22;39886;47.984;-1.586;2023-04-03T13:53:08;21.50;56.60
53978;DHT22;39886;47.984;-1.586;2023-04-03T13:55:36;21.50;56.70
53978;DHT22;39886;47.984;-1.586;2023-04-03T13:58:25;21.60;56.70
53978;DHT22;39886;47.984;-1.586;2023-04-03T14:03:33;21.60;56.60
53978;DHT22;39886;47.984;-1.586;2023-04-03T14:06:00;21.60;56.50
53978;DHT22;39886;47.984;-1.586;2023-04-03T14:08:27;21.60;56.60
53978;DHT22;39886;47.984;-1.586;2023-04-03T14:10:53;21.60;56.30
53978;DHT22;39886;47.984;-1.586;2023-04-03T14:13:19;21.60;56.30
53978;DHT22;39886;47.984;-1.586;2023-04-03T14:15:47;21.60;56.40
53978;DHT22;39886;47.984;-1.586;2023-04-03T14:18:16;21.70;56.50
53978;DHT22;39886;47.984;-1.586;2023-04-03T14:20:42;21.70;56.40
53978;DHT22;39886;47.984;-1.586;2023-04-03T14:23:08;21.70;56.30
53978;DHT22;39886;47.984;-1.586;2023-04-03T14:25:34;21.70;56.30
53978;DHT22;39886;47.984;-1.586;2023-04-03T14:28:01;21.70;56.20
53978;DHT22;39886;47.984;-1.586;2023-04-03T14:30:29;21.70;56.40
53978;DHT22;39886;47.984;-1.586;2023-04-03T14:32:57;21.80;56.20
53978;DHT22;39886;47.984;-1.586;2023-04-03T14:35:24;21.80;56.30
53978;DHT22;39886;47.984;-1.586;2023-04-03T14:37:51;21.80;56.30
53978;DHT22;39886;47.984;-1.586;2023-04-03T14:40:24;21.80;56.40
53978;DHT22;39886;47.984;-1.586;2023-04-03T14:42:50;21.80;56.30
53978;DHT22;39886;47.984;-1.586;2023-04-03T14:45:17;21.80;56.30
53978;DHT22;39886;47.984;-1.586;2023-04-03T14:47:49;21.80;56.30
53978;DHT22;39886;47.984;-1.586;2023-04-03T14:50:20;21.80;56.40
53978;DHT22;39886;47.984;-1.586;2023-04-03T14:52:47;21.80;56.50
53978;DHT22;39886;47.984;-1.586;2023-04-03T14:55:18;21.80;56.60
53978;DHT22;39886;47.984;-1.586;2023-04-03T14:57:44;21.90;56.50
53978;DHT22;39886;47.984;-1.586;2023-04-03T15:00:16;21.90;56.50
53978;DHT22;39886;47.984;-1.586;2023-04-03T15:02:42;21.90;56.50
53978;DHT22;39886;47.984;-1.586;2023-04-03T15:05:09;21.90;56.40
53978;DHT22;39886;47.984;-1.586;2023-04-03T15:07:47;22.00;56.00
53978;DHT22;39886;47.984;-1.586;2023-04-03T15:10:22;22.10;55.90
53978;DHT22;39886;47.984;-1.586;2023-04-03T15:12:51;22.20;55.50
53978;DHT22;39886;47.984;-1.586;2023-04-03T15:15:19;22.30;55.40
53978;DHT22;39886;47.984;-1.586;2023-04-03T15:17:46;22.20;55.40
53978;DHT22;39886;47.984;-1.586;2023-04-03T15:20:18;22.20;55.60
53978;DHT22;39886;47.984;-1.586;2023-04-03T15:22:44;22.30;55.50
53978;DHT22;39886;47.984;-1.586;2023-04-03T15:25:10;22.30;55.40
53978;DHT22;39886;47.984;-1.586;2023-04-03T15:27:37;22.30;55.50
53978;DHT22;39886;47.984;-1.586;2023-04-03T15:30:04;22.30;55.40
53978;DHT22;39886;47.984;-1.586;2023-04-03T15:32:30;22.30;55.60
53978;DHT22;39886;47.984;-1.586;2023-04-03T15:34:56;22.20;55.80
53978;DHT22;39886;47.984;-1.586;2023-04-03T15:37:22;22.10;56.00
53978;DHT22;39886;47.984;-1.586;2023-04-03T15:39:48;22.10;56.30
53978;DHT22;39886;47.984;-1.586;2023-04-03T15:42:13;22.00;56.30
53978;DHT22;39886;47.984;-1.586;2023-04-03T15:44:39;22.00;56.30
53978;DHT22;39886;47.984;-1.586;2023-04-03T15:47:05;21.90;56.40
53978;DHT22;39886;47.984;-1.586;2023-04-03T15:49:34;21.90;56.60
53978;DHT22;39886;47.984;-1.586;2023-04-03T15:52:00;21.90;56.60
53978;DHT22;39886;47.984;-1.586;2023-04-03T15:54:26;21.80;56.50
53978;DHT22;39886;47.984;-1.586;2023-04-03T15:56:53;21.90;56.70
53978;DHT22;39886;47.984;-1.586;2023-04-03T15:59:18;21.90;56.70
53978;DHT22;39886;47.984;-1.586;2023-04-03T16:01:44;21.90;57.40
53978;DHT22;39886;47.984;-1.586;2023-04-03T16:04:10;21.80;56.70
53978;DHT22;39886;47.984;-1.586;2023-04-03T16:06:37;21.80;57.30
53978;DHT22;39886;47.984;-1.586;2023-04-03T16:09:05;21.80;56.50
53978;DHT22;39886;47.984;-1.586;2023-04-03T16:11:31;21.80;56.60
53978;DHT22;39886;47.984;-1.586;2023-04-03T16:13:57;21.80;56.70
53978;DHT22;39886;47.984;-1.586;2023-04-03T16:16:24;21.80;56.90
53978;DHT22;39886;47.984;-1.586;2023-04-03T16:18:54;21.70;56.90
53978;DHT22;39886;47.984;-1.586;2023-04-03T16:21:20;21.70;56.90
53978;DHT22;39886;47.984;-1.586;2023-04-03T16:23:46;21.70;56.90
53978;DHT22;39886;47.984;-1.586;2023-04-03T16:26:12;21.80;56.90
53978;DHT22;39886;47.984;-1.586;2023-04-03T16:28:38;21.70;56.90
53978;DHT22;39886;47.984;-1.586;2023-04-03T16:31:05;21.70;57.10
53978;DHT22;39886;47.984;-1.586;2023-04-03T16:33:31;21.70;57.10
53978;DHT22;39886;47.984;-1.586;2023-04-03T16:35:57;21.60;57.20
53978;DHT22;39886;47.984;-1.586;2023-04-03T16:38:23;21.60;57.10
53978;DHT22;39886;47.984;-1.586;2023-04-03T16:40:49;21.60;57.10
53978;DHT22;39886;47.984;-1.586;2023-04-03T16:43:15;21.60;57.10
53978;DHT22;39886;47.984;-1.586;2023-04-03T16:45:41;21.60;57.10
53978;DHT22;39886;47.984;-1.586;2023-04-03T16:48:07;21.60;57.10
53978;DHT22;39886;47.984;-1.586;2023-04-03T16:50:33;21.60;57.30
53978;DHT22;39886;47.984;-1.586;2023-04-03T16:52:59;21.60;57.40
53978;DHT22;39886;47.984;-1.586;2023-04-03T16:55:25;21.50;57.40
53978;DHT22;39886;47.984;-1.586;2023-04-03T16:57:51;21.50;57.60
53978;DHT22;39886;47.984;-1.586;2023-04-03T17:00:16;21.50;57.60
53978;DHT22;39886;47.984;-1.586;2023-04-03T17:02:42;21.50;57.60
53978;DHT22;39886;47.984;-1.586;2023-04-03T17:05:08;21.50;57.70
53978;DHT22;39886;47.984;-1.586;2023-04-03T17:07:34;21.40;57.60
53978;DHT22;39886;47.984;-1.586;2023-04-03T17:10:00;21.40;57.70
53978;DHT22;39886;47.984;-1.586;2023-04-03T17:12:26;21.40;57.70
53978;DHT22;39886;47.984;-1.586;2023-04-03T17:14:51;21.40;57.80
53978;DHT22;39886;47.984;-1.586;2023-04-03T17:17:22;21.30;58.40
53978;DHT22;39886;47.984;-1.586;2023-04-03T17:19:49;21.30;57.80
53978;DHT22;39886;47.984;-1.586;2023-04-03T17:22:15;21.30;57.80
53978;DHT22;39886;47.984;-1.586;2023-04-03T17:24:42;21.30;57.80